Time;durP1;ratioP1;P1;durP2;ratioP2;P2;SDS_P1;SDS_P2;PMS_P1;PMS_P2;Temp;Humidity;BMP_temperature;BMP_pressure;BME280_temperature;BME280_humidity;BME280_pressure;Samples;Min_cycle;Max_cycle;Signal;HPM_P1;HPM_P2
2022/11/22 00:00:24;;;;;;;38.45;32.08;;;;;;;;;;9989488;28;20053;-60
2022/11/22 00:05:18;;;;;;;43.60;34.63;;;;;;;;;;9988808;28;20411;-61
2022/11/22 00:10:12;;;;;;;38.78;30.38;;;;;;;;;;9988229;28;20058;-60
2022/11/22 00:15:06;;;;;;;42.95;31.17;;;;;;;;;;9988762;28;20046;-60
2022/11/22 00:20:01;;;;;;;31.10;26.05;;;;;;;;;;9988313;28;20074;-60
2022/11/22 00:24:54;;;;;;;33.10;25.05;;;;;;;;;;9987547;28;20058;-60
2022/11/22 00:29:47;;;;;;;28.58;23.63;;;;;;;;;;9988392;28;20058;-61
2022/11/22 00:34:41;;;;;;;28.95;23.67;;;;;;;;;;9988378;28;20054;-61
2022/11/22 00:39:35;;;;;;;26.95;23.17;;;;;;;;;;9988603;28;20062;-61
2022/11/22 00:44:29;;;;;;;29.77;23.42;;;;;;;;;;9988108;28;20054;-63
2022/11/22 00:49:23;;;;;;;26.13;20.77;;;;;;;;;;9987528;28;20047;-60
2022/11/22 00:54:17;;;;;;;26.95;20.60;;;;;;;;;;9987765;28;20130;-60
2022/11/22 00:59:10;;;;;;;27.80;21.83;;;;;;;;;;9987826;28;20148;-60
2022/11/22 01:04:04;;;;;;;29.38;21.88;;;;;;;;;;9988074;28;20137;-60
2022/11/22 01:08:58;;;;;;;31.25;23.95;;;;;;;;;;9987839;28;20125;-60
2022/11/22 01:13:52;;;;;;;30.30;23.15;;;;;;;;;;9988028;28;20081;-60
2022/11/22 01:18:46;;;;;;;26.55;20.95;;;;;;;;;;9987326;28;20053;-61
2022/11/22 01:23:41;;;;;;;28.35;23.63;;;;;;;;;;9987537;28;20051;-61
2022/11/22 01:28:36;;;;;;;31.35;23.08;;;;;;;;;;9987633;28;20050;-61
2022/11/22 01:40:13;;;;;;;25.02;21.60;;;;;;;;;;9994206;28;20042;-61
2022/11/22 01:45:31;;;;;;;27.95;21.35;;;;;;;;;;9993480;28;20066;-61
2022/11/22 01:50:25;;;;;;;26.45;21.85;;;;;;;;;;9983956;28;20058;-60
2022/11/22 01:55:18;;;;;;;27.70;19.85;;;;;;;;;;9976320;28;20062;-60
2022/11/22 02:00:16;;;;;;;26.05;20.83;;;;;;;;;;9993475;28;20129;-60
2022/11/22 02:05:12;;;;;;;27.23;22.35;;;;;;;;;;9983088;28;20081;-60
2022/11/22 02:10:07;;;;;;;25.27;20.90;;;;;;;;;;9976867;28;20046;-60
2022/11/22 02:15:02;;;;;;;26.67;21.55;;;;;;;;;;9992993;28;20425;-60
2022/11/22 02:19:56;;;;;;;29.15;22.02;;;;;;;;;;9992998;28;20158;-60
2022/11/22 02:25:24;;;;;;;22.63;19.10;;;;;;;;;;9992556;28;20058;-60
2022/11/22 02:30:19;;;;;;;23.55;17.20;;;;;;;;;;9992028;28;20063;-60
2022/11/22 02:35:20;;;;;;;22.52;18.80;;;;;;;;;;9992296;28;20045;-61
2022/11/22 02:40:14;;;;;;;24.15;18.30;;;;;;;;;;9991953;28;20115;-60
2022/11/22 02:45:09;;;;;;;23.30;17.17;;;;;;;;;;9991139;28;20053;-60
2022/11/22 02:50:03;;;;;;;23.10;18.90;;;;;;;;;;9992255;28;20043;-60
2022/11/22 02:54:57;;;;;;;23.95;18.50;;;;;;;;;;9991944;28;20399;-60
2022/11/22 02:59:51;;;;;;;21.25;17.40;;;;;;;;;;9991778;28;20050;-61
2022/11/22 03:04:44;;;;;;;19.88;17.15;;;;;;;;;;9991309;28;20066;-61
2022/11/22 03:09:38;;;;;;;19.45;17.25;;;;;;;;;;9991273;28;20085;-60
2022/11/22 03:14:33;;;;;;;22.05;18.00;;;;;;;;;;9990888;28;20054;-60
2022/11/22 03:19:27;;;;;;;22.67;16.65;;;;;;;;;;9991510;28;20074;-60
2022/11/22 03:24:21;;;;;;;21.23;17.02;;;;;;;;;;9990535;28;20375;-60
2022/11/22 03:29:16;;;;;;;26.02;19.63;;;;;;;;;;9989844;28;20076;-60
2022/11/22 03:34:11;;;;;;;21.38;17.83;;;;;;;;;;9990158;28;20129;-60
2022/11/22 03:39:05;;;;;;;22.40;17.75;;;;;;;;;;9990286;28;20058;-61
2022/11/22 03:43:57;;;;;;;20.67;17.45;;;;;;;;;;9990370;28;20100;-60
2022/11/22 03:48:51;;;;;;;19.40;17.20;;;;;;;;;;9989651;28;20051;-60
2022/11/22 03:53:45;;;;;;;19.75;16.77;;;;;;;;;;9989546;28;20056;-62
2022/11/22 03:58:40;;;;;;;21.45;17.83;;;;;;;;;;9989541;28;20470;-62
2022/11/22 04:03:34;;;;;;;28.45;21.50;;;;;;;;;;9989492;28;20457;-61
2022/11/22 04:08:27;;;;;;;26.88;22.52;;;;;;;;;;9989092;28;20064;-62
2022/11/22 04:13:20;;;;;;;24.60;19.77;;;;;;;;;;9989080;28;20050;-61
2022/11/22 04:18:14;;;;;;;15.80;13.98;;;;;;;;;;10001806;28;20494;-62
2022/11/22 04:23:15;;;;;;;14.30;12.70;;;;;;;;;;9988169;28;20074;-61
2022/11/22 04:28:10;;;;;;;14.18;12.73;;;;;;;;;;9988649;28;20050;-60
2022/11/22 04:33:04;;;;;;;13.43;11.18;;;;;;;;;;9988333;28;20046;-60
2022/11/22 04:37:58;;;;;;;13.25;11.45;;;;;;;;;;9987663;28;20050;-60
2022/11/22 04:48:04;;;;;;;16.33;13.32;;;;;;;;;;9987994;28;20042;-60
2022/11/22 04:52:58;;;;;;;16.67;13.32;;;;;;;;;;9987546;28;20054;-60
2022/11/22 04:57:52;;;;;;;17.00;14.63;;;;;;;;;;9987314;28;20053;-62
2022/11/22 05:02:52;;;;;;;16.52;14.35;;;;;;;;;;9987496;28;20069;-61
2022/11/22 05:07:46;;;;;;;16.58;14.77;;;;;;;;;;9984651;28;20050;-61
2022/11/22 05:12:42;;;;;;;17.35;15.50;;;;;;;;;;9994397;28;20061;-60
2022/11/22 05:17:37;;;;;;;16.58;14.15;;;;;;;;;;9994527;28;20498;-61
2022/11/22 05:27:43;;;;;;;13.95;12.48;;;;;;;;;;9992050;28;20081;-59
2022/11/22 05:32:36;;;;;;;14.25;12.38;;;;;;;;;;9992305;28;20043;-59
2022/11/22 05:37:30;;;;;;;14.90;12.10;;;;;;;;;;9991463;28;20137;-59
2022/11/22 05:42:23;;;;;;;13.02;11.63;;;;;;;;;;9992025;28;20062;-62
2022/11/22 05:47:17;;;;;;;15.27;12.57;;;;;;;;;;9991366;28;20055;-61
2022/11/22 05:52:11;;;;;;;14.27;12.77;;;;;;;;;;9991791;28;20047;-61
2022/11/22 05:57:05;;;;;;;14.30;12.80;;;;;;;;;;9991844;28;20047;-61
2022/11/22 06:01:59;;;;;;;13.45;12.05;;;;;;;;;;9989050;28;20054;-62
2022/11/22 06:06:54;;;;;;;13.82;11.63;;;;;;;;;;9990925;28;20042;-61
2022/11/22 06:11:47;;;;;;;15.60;11.00;;;;;;;;;;9989801;28;20046;-62
2022/11/22 06:16:40;;;;;;;12.43;10.73;;;;;;;;;;9986387;28;20513;-61
2022/11/22 06:21:33;;;;;;;14.02;10.27;;;;;;;;;;9990779;28;20047;-61
2022/11/22 06:26:28;;;;;;;12.52;9.95;;;;;;;;;;9989279;28;20056;-61
2022/11/22 06:31:28;;;;;;;10.43;9.15;;;;;;;;;;9991620;28;20116;-61
2022/11/22 06:36:29;;;;;;;10.23;9.15;;;;;;;;;;9985887;28;20526;-61
2022/11/22 06:41:26;;;;;;;12.50;9.23;;;;;;;;;;9987976;28;20084;-61
2022/11/22 06:46:21;;;;;;;10.50;7.95;;;;;;;;;;9981071;28;20058;-60
2022/11/22 06:51:35;;;;;;;7.75;6.78;;;;;;;;;;9991178;28;20133;-62
2022/11/22 06:56:39;;;;;;;8.10;7.28;;;;;;;;;;9990565;28;20047;-64
2022/11/22 07:01:33;;;;;;;9.35;7.30;;;;;;;;;;9982366;28;20520;-61
2022/11/22 07:06:33;;;;;;;7.43;5.75;;;;;;;;;;9986035;28;20053;-61
2022/11/22 07:11:28;;;;;;;6.13;5.63;;;;;;;;;;9987704;28;20093;-61
2022/11/22 07:16:22;;;;;;;8.15;5.10;;;;;;;;;;9985838;28;20050;-61
2022/11/22 07:21:24;;;;;;;9.52;4.65;;;;;;;;;;9988287;28;20074;-60
2022/11/22 07:26:25;;;;;;;6.95;4.72;;;;;;;;;;9977555;28;20133;-62
2022/11/22 07:31:19;;;;;;;6.28;4.13;;;;;;;;;;9987839;28;20089;-61
2022/11/22 07:36:18;;;;;;;5.35;4.20;;;;;;;;;;9988586;28;20109;-63
2022/11/22 07:41:12;;;;;;;7.33;4.60;;;;;;;;;;9986976;28;20065;-59
2022/11/22 07:46:07;;;;;;;5.05;4.55;;;;;;;;;;9982913;28;20145;-63
2022/11/22 07:51:25;;;;;;;4.20;3.83;;;;;;;;;;9985015;28;20116;-61
2022/11/22 07:56:22;;;;;;;3.72;3.33;;;;;;;;;;9983203;28;20078;-60
2022/11/22 08:01:17;;;;;;;5.47;3.60;;;;;;;;;;9987057;28;20073;-62
2022/11/22 08:06:12;;;;;;;3.80;3.50;;;;;;;;;;9987360;28;20053;-61
2022/11/22 08:11:07;;;;;;;3.47;3.15;;;;;;;;;;9986939;28;20050;-61
2022/11/22 08:16:10;;;;;;;9.73;4.78;;;;;;;;;;9986203;28;20054;-61
2022/11/22 08:21:04;;;;;;;4.25;3.85;;;;;;;;;;9986638;28;20053;-61
2022/11/22 08:25:58;;;;;;;4.00;3.60;;;;;;;;;;9983465;28;20124;-62
2022/11/22 08:30:52;;;;;;;3.47;3.17;;;;;;;;;;9987235;28;20501;-61
2022/11/22 08:35:49;;;;;;;3.28;2.75;;;;;;;;;;9987316;28;20573;-61
2022/11/22 08:40:43;;;;;;;3.63;2.63;;;;;;;;;;9981999;28;20051;-62
2022/11/22 08:45:37;;;;;;;2.90;2.63;;;;;;;;;;9993519;28;20050;-61
2022/11/22 08:50:31;;;;;;;4.68;3.30;;;;;;;;;;9995135;28;20046;-62
2022/11/22 08:55:25;;;;;;;2.38;2.17;;;;;;;;;;9998903;28;20062;-61
2022/11/22 09:00:19;;;;;;;2.20;2.00;;;;;;;;;;9999835;28;20081;-62
2022/11/22 09:05:13;;;;;;;3.85;1.98;;;;;;;;;;9999020;28;20088;-61
2022/11/22 09:10:08;;;;;;;3.10;2.63;;;;;;;;;;9997993;28;20104;-61
2022/11/22 09:15:02;;;;;;;2.53;2.00;;;;;;;;;;9996947;28;20096;-61
2022/11/22 09:19:55;;;;;;;2.78;2.47;;;;;;;;;;9998663;28;20516;-61
2022/11/22 09:24:49;;;;;;;2.38;2.17;;;;;;;;;;9998538;28;20120;-62
2022/11/22 09:29:43;;;;;;;3.10;1.63;;;;;;;;;;9997811;28;20053;-61
2022/11/22 09:34:37;;;;;;;2.90;1.70;;;;;;;;;;9997566;28;20046;-61
2022/11/22 09:39:30;;;;;;;8.40;7.55;;;;;;;;;;9997794;28;20105;-60
2022/11/22 09:44:36;;;;;;;8.48;7.32;;;;;;;;;;9991186;28;20054;-61
2022/11/22 09:49:51;;;;;;;5.65;3.15;;;;;;;;;;9978650;28;20050;-61
2022/11/22 09:55:27;;;;;;;4.57;4.18;;;;;;;;;;9993463;28;20066;-62
2022/11/22 10:00:24;;;;;;;3.05;2.53;;;;;;;;;;9964757;28;20077;-62
2022/11/22 10:05:25;;;;;;;5.60;2.97;;;;;;;;;;9992424;28;20050;-62
2022/11/22 10:10:26;;;;;;;4.32;3.88;;;;;;;;;;9988393;28;20050;-62
2022/11/22 10:15:22;;;;;;;3.50;3.20;;;;;;;;;;9989854;28;20420;-62
2022/11/22 10:20:19;;;;;;;4.78;2.50;;;;;;;;;;9991912;28;20085;-61
2022/11/22 10:25:28;;;;;;;4.38;2.80;;;;;;;;;;9988839;28;20102;-62
2022/11/22 10:30:22;;;;;;;3.40;3.10;;;;;;;;;;9991721;28;20062;-62
2022/11/22 10:35:33;;;;;;;3.80;3.35;;;;;;;;;;9989014;28;20129;-62
2022/11/22 10:40:29;;;;;;;4.85;3.80;;;;;;;;;;9989223;28;20050;-62
2022/11/22 10:45:33;;;;;;;2.88;2.67;;;;;;;;;;9972288;28;20078;-61
2022/11/22 10:50:27;;;;;;;2.70;2.50;;;;;;;;;;9990161;28;20050;-61
2022/11/22 10:55:38;;;;;;;2.35;2.17;;;;;;;;;;9968013;28;20486;-61
2022/11/22 11:01:20;;;;;;;3.13;2.83;;;;;;;;;;9990407;28;20457;-61
2022/11/22 11:06:43;;;;;;;4.28;2.20;;;;;;;;;;9986627;28;20074;-61
2022/11/22 11:11:57;;;;;;;2.70;2.50;;;;;;;;;;9988896;28;20503;-61
2022/11/22 11:16:51;;;;;;;3.80;2.53;;;;;;;;;;9990324;28;20050;-61
2022/11/22 11:22:24;;;;;;;2.60;2.40;;;;;;;;;;9989958;28;20056;-61
2022/11/22 11:27:59;;;;;;;3.22;2.95;;;;;;;;;;9988301;28;20134;-62
2022/11/22 11:32:55;;;;;;;7.18;2.95;;;;;;;;;;9989032;28;20054;-62
2022/11/22 11:37:49;;;;;;;11.23;7.45;;;;;;;;;;9985254;28;20517;-62
2022/11/22 11:42:43;;;;;;;6.55;5.07;;;;;;;;;;9983824;28;20089;-63
2022/11/22 11:47:37;;;;;;;4.70;3.20;;;;;;;;;;9984979;28;20080;-62
2022/11/22 11:52:33;;;;;;;10.52;4.95;;;;;;;;;;9989569;28;20397;-62
2022/11/22 11:57:31;;;;;;;3.15;2.88;;;;;;;;;;9995476;28;20057;-63
2022/11/22 12:02:49;;;;;;;44.03;29.45;;;;;;;;;;9988864;28;20453;-62
2022/11/22 12:07:45;;;;;;;6.13;5.40;;;;;;;;;;9988520;28;20413;-62
2022/11/22 12:13:09;;;;;;;9.10;8.25;;;;;;;;;;9987995;28;20046;-66
2022/11/22 12:18:20;;;;;;;7.90;7.07;;;;;;;;;;9985816;28;20101;-66
2022/11/22 12:23:40;;;;;;;20.17;17.10;;;;;;;;;;9987483;28;20058;-66
2022/11/22 12:28:39;;;;;;;10.55;9.65;;;;;;;;;;9987110;28;20390;-68
2022/11/22 12:33:36;;;;;;;7.82;6.60;;;;;;;;;;9987760;28;20442;-67
2022/11/22 12:38:33;;;;;;;12.88;7.15;;;;;;;;;;9978377;28;20545;-68
2022/11/22 12:43:31;;;;;;;6.47;4.63;;;;;;;;;;9990925;28;20046;-66
2022/11/22 12:48:36;;;;;;;5.00;4.22;;;;;;;;;;9986118;28;20516;-67
2022/11/22 12:53:52;;;;;;;4.53;4.13;;;;;;;;;;9987550;28;20497;-66
2022/11/22 12:59:09;;;;;;;5.68;2.30;;;;;;;;;;9968176;28;20129;-66
2022/11/22 13:04:08;;;;;;;2.03;1.92;;;;;;;;;;9987304;28;20105;-67
2022/11/22 13:09:04;;;;;;;;;;;;;;;;;;9987482;28;20054;-67
2022/11/22 13:14:17;;;;;;;1.67;1.40;;;;;;;;;;9986789;28;20028;-65
2022/11/22 13:19:14;;;;;;;1.50;1.40;;;;;;;;;;9970021;28;20050;-65
2022/11/22 13:24:25;;;;;;;1.50;1.40;;;;;;;;;;9969804;28;20050;-65
2022/11/22 13:29:21;;;;;;;1.77;1.65;;;;;;;;;;9980273;28;20058;-65
2022/11/22 13:34:24;;;;;;;1.50;1.40;;;;;;;;;;9977247;28;20042;-66
2022/11/22 13:39:20;;;;;;;2.47;2.08;;;;;;;;;;9993715;28;20058;-65
2022/11/22 13:44:32;;;;;;;1.95;1.80;;;;;;;;;;9974573;28;20054;-66
2022/11/22 13:49:41;;;;;;;3.25;1.65;;;;;;;;;;9992781;28;20078;-66
2022/11/22 13:54:46;;;;;;;1.55;1.45;;;;;;;;;;9993847;28;20058;-66
2022/11/22 13:59:40;;;;;;;2.17;1.83;;;;;;;;;;9992854;28;20054;-66
2022/11/22 14:04:39;;;;;;;2.10;1.90;;;;;;;;;;9993436;28;20047;-66
2022/11/22 14:09:38;;;;;;;1.92;1.58;;;;;;;;;;9993592;28;20085;-66
2022/11/22 14:14:44;;;;;;;2.42;1.95;;;;;;;;;;9992035;28;20074;-66
2022/11/22 14:19:52;;;;;;;22.13;16.52;;;;;;;;;;9992790;28;20054;-66
2022/11/22 14:24:52;;;;;;;1.90;1.80;;;;;;;;;;9979985;28;20134;-66
2022/11/22 14:30:03;;;;;;;;;;;;;;;;;;9992481;28;20512;-66
2022/11/22 14:35:02;;;;;;;4.57;1.80;;;;;;;;;;9990999;28;20284;-65
2022/11/22 14:40:01;;;;;;;1.80;1.70;;;;;;;;;;9990539;28;20062;-64
2022/11/22 14:44:54;;;;;;;3.50;2.60;;;;;;;;;;9990637;28;20485;-65
2022/11/22 14:50:33;;;;;;;1.95;1.80;;;;;;;;;;9985154;28;20050;-65
2022/11/22 14:55:31;;;;;;;2.83;1.80;;;;;;;;;;9985094;28;20113;-64
2022/11/22 15:00:25;;;;;;;2.13;1.58;;;;;;;;;;9989432;28;20100;-64
2022/11/22 15:05:42;;;;;;;1.65;1.50;;;;;;;;;;9972629;28;20066;-64
2022/11/22 15:11:19;;;;;;;1.67;1.58;;;;;;;;;;9985450;28;20042;-64
2022/11/22 15:16:30;;;;;;;2.33;2.13;;;;;;;;;;9989134;28;20476;-64
2022/11/22 15:21:44;;;;;;;6.72;1.80;;;;;;;;;;9969836;28;20042;-64
2022/11/22 15:26:57;;;;;;;3.58;2.40;;;;;;;;;;9989083;28;20116;-64
2022/11/22 15:32:16;;;;;;;2.72;2.53;;;;;;;;;;9988192;28;20416;-64
2022/11/22 15:37:38;;;;;;;3.33;2.05;;;;;;;;;;9989434;28;20042;-65
2022/11/22 15:42:59;;;;;;;3.05;2.53;;;;;;;;;;9981700;28;20053;-65
2022/11/22 15:48:42;;;;;;;2.38;2.17;;;;;;;;;;9968655;28;20054;-64
2022/11/22 15:54:05;;;;;;;2.20;2.00;;;;;;;;;;9977852;28;20069;-64
2022/11/22 15:59:26;;;;;;;2.75;2.55;;;;;;;;;;9988327;28;20046;-64
2022/11/22 16:04:32;;;;;;;4.03;2.30;;;;;;;;;;9988507;28;20054;-64
2022/11/22 16:09:36;;;;;;;6.07;2.65;;;;;;;;;;9967619;28;20161;-64
2022/11/22 16:14:55;;;;;;;2.83;2.10;;;;;;;;;;9981004;28;20050;-64
2022/11/22 16:19:49;;;;;;;3.70;2.85;;;;;;;;;;9958733;28;20054;-64
2022/11/22 16:24:43;;;;;;;2.90;2.60;;;;;;;;;;9984207;28;20051;-64
2022/11/22 16:29:36;;;;;;;3.38;3.08;;;;;;;;;;9980421;28;20062;-64
2022/11/22 16:34:30;;;;;;;2.45;2.13;;;;;;;;;;9968197;28;20050;-64
2022/11/22 16:39:23;;;;;;;3.08;2.00;;;;;;;;;;9985644;28;20061;-65
2022/11/22 16:44:18;;;;;;;3.67;2.15;;;;;;;;;;9987855;28;20083;-64
2022/11/22 16:49:35;;;;;;;2.75;2.17;;;;;;;;;;9987509;28;20047;-62
2022/11/22 16:54:32;;;;;;;3.17;2.60;;;;;;;;;;9985081;28;20058;-63
2022/11/22 16:59:25;;;;;;;1.85;1.70;;;;;;;;;;9985570;28;20043;-65
2022/11/22 17:04:25;;;;;;;2.40;2.20;;;;;;;;;;9987433;28;20456;-65
2022/11/22 17:09:20;;;;;;;1.90;1.80;;;;;;;;;;9994823;28;20557;-64
2022/11/22 17:14:14;;;;;;;2.50;2.13;;;;;;;;;;9994103;28;20054;-64
2022/11/22 17:19:08;;;;;;;2.13;1.85;;;;;;;;;;9992945;28;20062;-64
2022/11/22 17:24:24;;;;;;;2.10;1.90;;;;;;;;;;9986210;28;20049;-63
2022/11/22 17:29:22;;;;;;;3.15;1.90;;;;;;;;;;9981503;28;20062;-63
2022/11/22 17:34:36;;;;;;;2.47;2.25;;;;;;;;;;9980456;28;20054;-63
2022/11/22 17:39:30;;;;;;;2.28;2.08;;;;;;;;;;9983307;28;20046;-63
2022/11/22 17:44:25;;;;;;;2.30;1.98;;;;;;;;;;9991879;28;20053;-63
2022/11/22 17:49:19;;;;;;;9.40;6.00;;;;;;;;;;9990013;28;20501;-64
2022/11/22 17:54:13;;;;;;;16.85;10.52;;;;;;;;;;9990496;28;20070;-64
2022/11/22 17:59:06;;;;;;;2.97;2.30;;;;;;;;;;9992040;28;20060;-64
2022/11/22 18:04:00;;;;;;;2.38;2.15;;;;;;;;;;9993292;28;20126;-63
2022/11/22 18:08:54;;;;;;;2.78;1.92;;;;;;;;;;9993387;28;20061;-64
2022/11/22 18:13:49;;;;;;;3.08;2.22;;;;;;;;;;9992439;28;20062;-63
2022/11/22 18:18:43;;;;;;;1.88;1.77;;;;;;;;;;9992319;28;20046;-63
2022/11/22 18:23:52;;;;;;;;;;;;;;;;;;9992237;28;20108;-63
2022/11/22 18:28:46;;;;;;;2.40;2.03;;;;;;;;;;9991575;28;19969;-63
2022/11/22 18:33:59;;;;;;;3.00;2.67;;;;;;;;;;9991970;28;20046;-63
2022/11/22 18:38:53;;;;;;;1.88;1.75;;;;;;;;;;9992127;28;20077;-63
2022/11/22 18:43:47;;;;;;;11.45;3.05;;;;;;;;;;9990929;28;20093;-63
2022/11/22 18:48:41;;;;;;;2.72;2.22;;;;;;;;;;9991064;28;20054;-64
2022/11/22 18:53:58;;;;;;;2.53;2.20;;;;;;;;;;9990320;28;20058;-64
2022/11/22 18:58:53;;;;;;;2.85;2.47;;;;;;;;;;9999551;28;20054;-63
2022/11/22 19:03:47;;;;;;;2.42;2.22;;;;;;;;;;9990928;28;20125;-64
2022/11/22 19:08:42;;;;;;;1.85;1.73;;;;;;;;;;9991245;28;20124;-64
2022/11/22 19:13:38;;;;;;;2.20;2.00;;;;;;;;;;9989909;28;20468;-63
2022/11/22 19:18:36;;;;;;;2.42;2.15;;;;;;;;;;9988503;28;20128;-63
2022/11/22 19:23:35;;;;;;;6.28;2.72;;;;;;;;;;9989630;28;20070;-63
2022/11/22 19:28:28;;;;;;;2.75;1.33;;;;;;;;;;9989326;28;20126;-62
2022/11/22 19:33:22;;;;;;;1.58;1.30;;;;;;;;;;9988419;28;20058;-63
2022/11/22 19:38:16;;;;;;;1.70;1.52;;;;;;;;;;9989119;28;20050;-63
2022/11/22 19:43:11;;;;;;;1.63;1.50;;;;;;;;;;9988400;28;20448;-63
2022/11/22 19:48:08;;;;;;;1.50;1.40;;;;;;;;;;9980280;28;20137;-63
2022/11/22 19:53:02;;;;;;;1.45;1.35;;;;;;;;;;9988929;28;20482;-63
2022/11/22 19:57:56;;;;;;;1.40;1.30;;;;;;;;;;9989189;28;20081;-64
2022/11/22 20:02:50;;;;;;;1.40;1.30;;;;;;;;;;9988578;28;20058;-65
2022/11/22 20:07:44;;;;;;;1.73;1.63;;;;;;;;;;9988574;28;20474;-66
2022/11/22 20:12:38;;;;;;;1.75;1.33;;;;;;;;;;9997749;28;20081;-64
2022/11/22 20:17:32;;;;;;;2.03;1.63;;;;;;;;;;9983582;28;20065;-63
2022/11/22 20:22:26;;;;;;;2.05;1.88;;;;;;;;;;9980116;28;20065;-63
2022/11/22 20:27:19;;;;;;;2.92;2.70;;;;;;;;;;9980887;28;20473;-63
2022/11/22 20:32:17;;;;;;;2.90;2.58;;;;;;;;;;9987817;28;20410;-63
2022/11/22 20:37:11;;;;;;;11.27;5.95;;;;;;;;;;9984457;28;20050;-63
2022/11/22 20:42:05;;;;;;;14.30;8.25;;;;;;;;;;9979100;28;20043;-63
2022/11/22 20:47:19;;;;;;;16.10;9.48;;;;;;;;;;9984435;28;20046;-63
2022/11/22 20:52:13;;;;;;;28.48;16.25;;;;;;;;;;9986383;28;20061;-63
2022/11/22 20:57:06;;;;;;;15.65;13.40;;;;;;;;;;9986565;28;20083;-63
2022/11/22 21:01:59;;;;;;;16.38;12.15;;;;;;;;;;9985296;28;20077;-63
2022/11/22 21:07:00;;;;;;;13.38;10.05;;;;;;;;;;9986825;28;20070;-62
2022/11/22 21:11:53;;;;;;;14.18;8.63;;;;;;;;;;9986589;28;20046;-63
2022/11/22 21:16:47;;;;;;;15.45;9.32;;;;;;;;;;9987157;28;20061;-66
2022/11/22 21:21:41;;;;;;;19.30;13.27;;;;;;;;;;9984721;28;20050;-63
2022/11/22 21:26:35;;;;;;;12.10;9.40;;;;;;;;;;9983629;28;20508;-63
2022/11/22 21:31:30;;;;;;;6.75;5.55;;;;;;;;;;9970751;28;20540;-61
2022/11/22 21:36:24;;;;;;;14.20;7.15;;;;;;;;;;9977919;28;20138;-62
2022/11/22 21:41:20;;;;;;;16.65;11.93;;;;;;;;;;9985339;28;20437;-63
2022/11/22 21:46:33;;;;;;;15.98;9.85;;;;;;;;;;9982741;28;20493;-63
2022/11/22 21:51:27;;;;;;;7.75;5.15;;;;;;;;;;9988325;28;20042;-63
2022/11/22 21:56:21;;;;;;;5.43;4.57;;;;;;;;;;9992662;28;20046;-63
2022/11/22 22:01:15;;;;;;;18.60;9.90;;;;;;;;;;9992651;28;20394;-63
2022/11/22 22:06:09;;;;;;;9.75;6.53;;;;;;;;;;9992133;28;20057;-63
2022/11/22 22:11:04;;;;;;;12.02;7.57;;;;;;;;;;9984845;28;20054;-63
2022/11/22 22:15:59;;;;;;;11.10;8.70;;;;;;;;;;9992139;28;20545;-63
2022/11/22 22:21:06;;;;;;;15.38;9.30;;;;;;;;;;9992408;28;20047;-63
2022/11/22 22:26:01;;;;;;;13.98;10.02;;;;;;;;;;9969566;28;20058;-63
2022/11/22 22:31:11;;;;;;;12.40;11.20;;;;;;;;;;9991249;28;20562;-64
2022/11/22 22:36:05;;;;;;;16.60;10.65;;;;;;;;;;9990949;28;20042;-63
2022/11/22 22:41:00;;;;;;;10.73;9.30;;;;;;;;;;9988842;28;20413;-63
2022/11/22 22:45:54;;;;;;;10.45;9.35;;;;;;;;;;9988077;28;20054;-63
2022/11/22 22:50:55;;;;;;;10.40;9.13;;;;;;;;;;9988783;28;20042;-63
2022/11/22 22:55:54;;;;;;;9.65;8.65;;;;;;;;;;9989535;28;20050;-63
2022/11/22 23:00:48;;;;;;;9.57;6.97;;;;;;;;;;9988302;28;20752;-62
2022/11/22 23:05:41;;;;;;;9.95;8.30;;;;;;;;;;9989992;28;20089;-65
2022/11/22 23:10:35;;;;;;;10.65;9.38;;;;;;;;;;9989478;28;20050;-62
2022/11/22 23:15:29;;;;;;;12.45;9.75;;;;;;;;;;9989380;28;20106;-63
2022/11/22 23:20:42;;;;;;;10.63;9.52;;;;;;;;;;9984420;28;20050;-63
2022/11/22 23:25:36;;;;;;;12.73;8.48;;;;;;;;;;9989120;28;20452;-62
2022/11/22 23:30:30;;;;;;;8.70;6.85;;;;;;;;;;9988970;28;20104;-63
2022/11/22 23:35:24;;;;;;;7.00;6.30;;;;;;;;;;9987747;28;20058;-62
2022/11/22 23:40:18;;;;;;;9.48;6.50;;;;;;;;;;9988927;28;20054;-62
2022/11/22 23:45:12;;;;;;;8.20;6.25;;;;;;;;;;9988789;28;20046;-62
2022/11/22 23:50:09;;;;;;;7.88;6.50;;;;;;;;;;9988138;28;20061;-63
2022/11/22 23:55:04;;;;;;;8.98;7.90;;;;;;;;;;9987903;28;20050;-63
2022/11/22 23:59:57;;;;;;;12.63;11.43;;;;;;;;;;9987781;28;20395;-63
